sensor_id;sensor_type;location;lat;lon;timestamp;P1;durP1;ratioP1;P2;durP2;ratioP2
5961;SDS011;3007;50.770;0.250;2023-12-29T00:01:28;35.07;;;6.70;;
5961;SDS011;3007;50.770;0.250;2023-12-29T00:03:55;39.23;;;6.77;;
5961;SDS011;3007;50.770;0.250;2023-12-29T00:06:22;36.33;;;7.87;;
5961;SDS011;3007;50.770;0.250;2023-12-29T00:08:49;38.40;;;7.47;;
5961;SDS011;3007;50.770;0.250;2023-12-29T00:11:16;36.67;;;6.93;;
5961;SDS011;3007;50.770;0.250;2023-12-29T00:13:45;35.60;;;7.77;;
5961;SDS011;3007;50.770;0.250;2023-12-29T00:16:12;38.77;;;7.47;;
5961;SDS011;3007;50.770;0.250;2023-12-29T00:18:39;44.50;;;8.43;;
5961;SDS011;3007;50.770;0.250;2023-12-29T00:21:05;51.70;;;8.17;;
5961;SDS011;3007;50.770;0.250;2023-12-29T00:23:32;34.57;;;7.67;;
5961;SDS011;3007;50.770;0.250;2023-12-29T00:25:59;43.43;;;7.97;;
5961;SDS011;3007;50.770;0.250;2023-12-29T00:28:26;39.80;;;8.57;;
5961;SDS011;3007;50.770;0.250;2023-12-29T00:30:54;40.50;;;8.13;;
5961;SDS011;3007;50.770;0.250;2023-12-29T00:33:21;39.93;;;7.53;;
5961;SDS011;3007;50.770;0.250;2023-12-29T00:35:48;34.33;;;7.33;;
5961;SDS011;3007;50.770;0.250;2023-12-29T00:38:15;38.40;;;6.97;;
5961;SDS011;3007;50.770;0.250;2023-12-29T00:40:41;43.97;;;8.40;;
5961;SDS011;3007;50.770;0.250;2023-12-29T00:43:08;46.67;;;8.60;;
5961;SDS011;3007;50.770;0.250;2023-12-29T00:45:35;48.13;;;8.00;;
5961;SDS011;3007;50.770;0.250;2023-12-29T00:48:04;35.67;;;8.33;;
5961;SDS011;3007;50.770;0.250;2023-12-29T00:50:31;45.03;;;6.60;;
5961;SDS011;3007;50.770;0.250;2023-12-29T00:52:58;35.33;;;7.00;;
5961;SDS011;3007;50.770;0.250;2023-12-29T00:55:25;44.83;;;7.97;;
5961;SDS011;3007;50.770;0.250;2023-12-29T00:57:51;46.90;;;8.50;;
5961;SDS011;3007;50.770;0.250;2023-12-29T01:00:18;47.57;;;8.53;;
5961;SDS011;3007;50.770;0.250;2023-12-29T01:02:45;38.57;;;7.27;;
5961;SDS011;3007;50.770;0.250;2023-12-29T01:05:15;50.23;;;8.03;;
5961;SDS011;3007;50.770;0.250;2023-12-29T01:07:43;39.67;;;8.73;;
5961;SDS011;3007;50.770;0.250;2023-12-29T01:10:09;41.63;;;7.23;;
5961;SDS011;3007;50.770;0.250;2023-12-29T01:12:36;34.40;;;6.10;;
5961;SDS011;3007;50.770;0.250;2023-12-29T01:15:03;42.73;;;7.60;;
5961;SDS011;3007;50.770;0.250;2023-12-29T01:17:31;38.70;;;8.17;;
5961;SDS011;3007;50.770;0.250;2023-12-29T01:19:58;44.00;;;6.83;;
5961;SDS011;3007;50.770;0.250;2023-12-29T01:22:26;36.67;;;6.83;;
5961;SDS011;3007;50.770;0.250;2023-12-29T01:24:53;38.60;;;7.67;;
5961;SDS011;3007;50.770;0.250;2023-12-29T01:27:19;40.70;;;7.90;;
5961;SDS011;3007;50.770;0.250;2023-12-29T01:29:46;30.87;;;7.40;;
5961;SDS011;3007;50.770;0.250;2023-12-29T01:32:13;35.20;;;6.30;;
5961;SDS011;3007;50.770;0.250;2023-12-29T01:34:40;33.50;;;7.07;;
5961;SDS011;3007;50.770;0.250;2023-12-29T01:37:07;40.70;;;7.73;;
5961;SDS011;3007;50.770;0.250;2023-12-29T01:39:35;49.50;;;7.40;;
5961;SDS011;3007;50.770;0.250;2023-12-29T01:42:02;46.40;;;7.40;;
5961;SDS011;3007;50.770;0.250;2023-12-29T01:44:29;37.37;;;6.63;;
5961;SDS011;3007;50.770;0.250;2023-12-29T01:46:57;37.63;;;7.63;;
5961;SDS011;3007;50.770;0.250;2023-12-29T01:49:26;43.47;;;7.90;;
5961;SDS011;3007;50.770;0.250;2023-12-29T01:51:54;42.23;;;6.80;;
5961;SDS011;3007;50.770;0.250;2023-12-29T01:54:23;34.77;;;6.57;;
5961;SDS011;3007;50.770;0.250;2023-12-29T01:56:54;46.30;;;7.57;;
5961;SDS011;3007;50.770;0.250;2023-12-29T01:59:23;35.63;;;6.17;;
5961;SDS011;3007;50.770;0.250;2023-12-29T02:01:53;38.90;;;7.43;;
5961;SDS011;3007;50.770;0.250;2023-12-29T02:04:20;34.20;;;6.60;;
5961;SDS011;3007;50.770;0.250;2023-12-29T02:06:49;44.27;;;8.30;;
5961;SDS011;3007;50.770;0.250;2023-12-29T02:09:16;32.03;;;7.30;;
5961;SDS011;3007;50.770;0.250;2023-12-29T02:11:43;36.97;;;6.83;;
5961;SDS011;3007;50.770;0.250;2023-12-29T02:14:12;36.30;;;6.73;;
5961;SDS011;3007;50.770;0.250;2023-12-29T02:16:42;33.13;;;7.57;;
5961;SDS011;3007;50.770;0.250;2023-12-29T02:19:19;38.07;;;6.90;;
5961;SDS011;3007;50.770;0.250;2023-12-29T02:22:02;40.70;;;6.50;;
5961;SDS011;3007;50.770;0.250;2023-12-29T02:24:29;36.27;;;6.53;;
5961;SDS011;3007;50.770;0.250;2023-12-29T02:27:01;42.20;;;7.53;;
5961;SDS011;3007;50.770;0.250;2023-12-29T02:29:34;36.00;;;6.87;;
5961;SDS011;3007;50.770;0.250;2023-12-29T02:32:04;34.00;;;6.50;;
5961;SDS011;3007;50.770;0.250;2023-12-29T02:34:33;36.27;;;7.50;;
5961;SDS011;3007;50.770;0.250;2023-12-29T02:37:01;38.40;;;7.57;;
5961;SDS011;3007;50.770;0.250;2023-12-29T02:39:29;31.87;;;6.13;;
5961;SDS011;3007;50.770;0.250;2023-12-29T02:41:57;29.50;;;5.40;;
5961;SDS011;3007;50.770;0.250;2023-12-29T02:44:24;29.13;;;5.73;;
5961;SDS011;3007;50.770;0.250;2023-12-29T02:46:51;35.00;;;7.37;;
5961;SDS011;3007;50.770;0.250;2023-12-29T02:49:19;33.97;;;6.13;;
5961;SDS011;3007;50.770;0.250;2023-12-29T02:51:46;25.73;;;5.87;;
5961;SDS011;3007;50.770;0.250;2023-12-29T02:54:15;27.77;;;5.90;;
5961;SDS011;3007;50.770;0.250;2023-12-29T02:56:41;29.00;;;4.97;;
5961;SDS011;3007;50.770;0.250;2023-12-29T02:59:09;31.47;;;5.23;;
5961;SDS011;3007;50.770;0.250;2023-12-29T03:01:36;28.53;;;5.03;;
5961;SDS011;3007;50.770;0.250;2023-12-29T03:04:03;28.97;;;5.20;;
5961;SDS011;3007;50.770;0.250;2023-12-29T03:06:30;22.07;;;4.43;;
5961;SDS011;3007;50.770;0.250;2023-12-29T03:08:57;30.60;;;5.40;;
5961;SDS011;3007;50.770;0.250;2023-12-29T03:11:24;32.37;;;5.90;;
5961;SDS011;3007;50.770;0.250;2023-12-29T03:13:50;35.03;;;5.17;;
5961;SDS011;3007;50.770;0.250;2023-12-29T03:16:19;26.87;;;4.87;;
5961;SDS011;3007;50.770;0.250;2023-12-29T03:18:45;27.40;;;4.90;;
5961;SDS011;3007;50.770;0.250;2023-12-29T03:21:12;38.27;;;6.17;;
5961;SDS011;3007;50.770;0.250;2023-12-29T03:23:39;31.33;;;5.70;;
5961;SDS011;3007;50.770;0.250;2023-12-29T03:26:06;26.07;;;5.53;;
5961;SDS011;3007;50.770;0.250;2023-12-29T03:28:33;30.33;;;5.40;;
5961;SDS011;3007;50.770;0.250;2023-12-29T03:30:59;27.10;;;4.83;;
5961;SDS011;3007;50.770;0.250;2023-12-29T03:33:28;28.43;;;5.63;;
5961;SDS011;3007;50.770;0.250;2023-12-29T03:35:55;25.37;;;4.50;;
5961;SDS011;3007;50.770;0.250;2023-12-29T03:38:21;26.63;;;5.00;;
5961;SDS011;3007;50.770;0.250;2023-12-29T03:40:48;27.97;;;4.43;;
5961;SDS011;3007;50.770;0.250;2023-12-29T03:43:15;30.80;;;5.27;;
5961;SDS011;3007;50.770;0.250;2023-12-29T03:45:42;25.33;;;5.03;;
5961;SDS011;3007;50.770;0.250;2023-12-29T03:48:08;34.57;;;5.10;;
5961;SDS011;3007;50.770;0.250;2023-12-29T03:50:37;26.57;;;4.90;;
5961;SDS011;3007;50.770;0.250;2023-12-29T03:53:04;30.07;;;5.57;;
5961;SDS011;3007;50.770;0.250;2023-12-29T03:55:30;25.83;;;5.40;;
5961;SDS011;3007;50.770;0.250;2023-12-29T03:57:57;35.77;;;6.13;;
5961;SDS011;3007;50.770;0.250;2023-12-29T04:00:25;25.07;;;5.53;;
5961;SDS011;3007;50.770;0.250;2023-12-29T04:02:52;28.70;;;5.43;;
5961;SDS011;3007;50.770;0.250;2023-12-29T04:05:19;38.20;;;6.50;;
5961;SDS011;3007;50.770;0.250;2023-12-29T04:07:47;37.70;;;6.10;;
5961;SDS011;3007;50.770;0.250;2023-12-29T04:10:14;34.23;;;6.17;;
5961;SDS011;3007;50.770;0.250;2023-12-29T04:12:41;31.23;;;5.40;;
5961;SDS011;3007;50.770;0.250;2023-12-29T04:15:08;31.67;;;5.77;;
5961;SDS011;3007;50.770;0.250;2023-12-29T04:17:35;30.90;;;6.80;;
5961;SDS011;3007;50.770;0.250;2023-12-29T04:20:02;31.60;;;5.77;;
5961;SDS011;3007;50.770;0.250;2023-12-29T04:22:29;32.57;;;6.73;;
5961;SDS011;3007;50.770;0.250;2023-12-29T04:24:57;30.97;;;6.07;;
5961;SDS011;3007;50.770;0.250;2023-12-29T04:27:24;30.80;;;6.23;;
5961;SDS011;3007;50.770;0.250;2023-12-29T04:29:51;38.33;;;6.33;;
5961;SDS011;3007;50.770;0.250;2023-12-29T04:32:18;29.67;;;5.93;;
5961;SDS011;3007;50.770;0.250;2023-12-29T04:34:45;25.40;;;4.90;;
5961;SDS011;3007;50.770;0.250;2023-12-29T04:37:11;28.47;;;4.90;;
5961;SDS011;3007;50.770;0.250;2023-12-29T04:39:38;27.60;;;5.40;;
5961;SDS011;3007;50.770;0.250;2023-12-29T04:42:06;21.67;;;4.67;;
5961;SDS011;3007;50.770;0.250;2023-12-29T04:44:33;26.53;;;4.97;;
5961;SDS011;3007;50.770;0.250;2023-12-29T04:47:00;26.93;;;4.50;;
5961;SDS011;3007;50.770;0.250;2023-12-29T04:49:27;28.57;;;5.37;;
5961;SDS011;3007;50.770;0.250;2023-12-29T04:51:55;27.37;;;4.37;;
5961;SDS011;3007;50.770;0.250;2023-12-29T04:54:22;32.33;;;4.90;;
5961;SDS011;3007;50.770;0.250;2023-12-29T04:56:50;32.50;;;4.50;;
5961;SDS011;3007;50.770;0.250;2023-12-29T04:59:18;27.40;;;4.47;;
5961;SDS011;3007;50.770;0.250;2023-12-29T05:01:45;29.30;;;5.67;;
5961;SDS011;3007;50.770;0.250;2023-12-29T05:04:12;26.83;;;5.30;;
5961;SDS011;3007;50.770;0.250;2023-12-29T05:06:39;23.93;;;4.23;;
5961;SDS011;3007;50.770;0.250;2023-12-29T05:09:06;25.03;;;4.77;;
5961;SDS011;3007;50.770;0.250;2023-12-29T05:11:33;22.70;;;3.93;;
5961;SDS011;3007;50.770;0.250;2023-12-29T05:14:00;19.00;;;3.83;;
5961;SDS011;3007;50.770;0.250;2023-12-29T05:16:28;17.13;;;3.57;;
5961;SDS011;3007;50.770;0.250;2023-12-29T05:18:55;16.63;;;3.33;;
5961;SDS011;3007;50.770;0.250;2023-12-29T05:21:22;20.60;;;4.40;;
5961;SDS011;3007;50.770;0.250;2023-12-29T05:23:49;19.63;;;3.40;;
5961;SDS011;3007;50.770;0.250;2023-12-29T05:26:16;21.20;;;4.03;;
5961;SDS011;3007;50.770;0.250;2023-12-29T05:28:43;22.17;;;3.73;;
5961;SDS011;3007;50.770;0.250;2023-12-29T05:31:09;19.47;;;3.30;;
5961;SDS011;3007;50.770;0.250;2023-12-29T05:33:38;22.93;;;3.60;;
5961;SDS011;3007;50.770;0.250;2023-12-29T05:36:05;18.93;;;3.37;;
5961;SDS011;3007;50.770;0.250;2023-12-29T05:38:33;19.70;;;3.73;;
5961;SDS011;3007;50.770;0.250;2023-12-29T05:41:00;15.20;;;3.33;;
5961;SDS011;3007;50.770;0.250;2023-12-29T05:43:28;18.83;;;2.87;;
5961;SDS011;3007;50.770;0.250;2023-12-29T05:45:56;17.90;;;2.77;;
5961;SDS011;3007;50.770;0.250;2023-12-29T05:48:22;23.33;;;3.93;;
5961;SDS011;3007;50.770;0.250;2023-12-29T05:50:51;23.70;;;3.63;;
5961;SDS011;3007;50.770;0.250;2023-12-29T05:53:18;33.87;;;4.80;;
5961;SDS011;3007;50.770;0.250;2023-12-29T05:55:45;25.93;;;4.27;;
5961;SDS011;3007;50.770;0.250;2023-12-29T05:58:12;31.53;;;4.47;;
5961;SDS011;3007;50.770;0.250;2023-12-29T06:00:39;22.60;;;3.63;;
5961;SDS011;3007;50.770;0.250;2023-12-29T06:03:06;28.03;;;5.30;;
5961;SDS011;3007;50.770;0.250;2023-12-29T06:05:32;28.90;;;4.27;;
5961;SDS011;3007;50.770;0.250;2023-12-29T06:08:01;22.77;;;4.37;;
5961;SDS011;3007;50.770;0.250;2023-12-29T06:10:28;23.03;;;3.53;;
5961;SDS011;3007;50.770;0.250;2023-12-29T06:12:54;26.40;;;4.73;;
5961;SDS011;3007;50.770;0.250;2023-12-29T06:15:21;26.00;;;4.13;;
5961;SDS011;3007;50.770;0.250;2023-12-29T06:17:48;36.37;;;4.80;;
5961;SDS011;3007;50.770;0.250;2023-12-29T06:20:15;30.67;;;4.20;;
5961;SDS011;3007;50.770;0.250;2023-12-29T06:22:42;26.10;;;4.53;;
5961;SDS011;3007;50.770;0.250;2023-12-29T06:25:11;31.83;;;4.83;;
5961;SDS011;3007;50.770;0.250;2023-12-29T06:27:38;27.90;;;4.30;;
5961;SDS011;3007;50.770;0.250;2023-12-29T06:30:07;37.53;;;4.70;;
5961;SDS011;3007;50.770;0.250;2023-12-29T06:32:35;28.23;;;4.50;;
5961;SDS011;3007;50.770;0.250;2023-12-29T06:35:03;23.47;;;4.17;;
5961;SDS011;3007;50.770;0.250;2023-12-29T06:37:30;30.43;;;5.93;;
5961;SDS011;3007;50.770;0.250;2023-12-29T06:39:57;24.70;;;4.67;;
5961;SDS011;3007;50.770;0.250;2023-12-29T06:42:26;26.77;;;3.97;;
5961;SDS011;3007;50.770;0.250;2023-12-29T06:44:53;22.90;;;4.90;;
5961;SDS011;3007;50.770;0.250;2023-12-29T06:47:19;27.40;;;4.73;;
5961;SDS011;3007;50.770;0.250;2023-12-29T06:49:46;24.03;;;4.43;;
5961;SDS011;3007;50.770;0.250;2023-12-29T06:52:12;33.20;;;5.17;;
5961;SDS011;3007;50.770;0.250;2023-12-29T06:54:39;26.37;;;4.57;;
5961;SDS011;3007;50.770;0.250;2023-12-29T06:57:06;28.00;;;4.73;;
5961;SDS011;3007;50.770;0.250;2023-12-29T06:59:34;28.37;;;5.50;;
5961;SDS011;3007;50.770;0.250;2023-12-29T07:02:02;22.83;;;5.13;;
5961;SDS011;3007;50.770;0.250;2023-12-29T07:04:29;34.57;;;5.60;;
5961;SDS011;3007;50.770;0.250;2023-12-29T07:06:56;39.90;;;5.80;;
5961;SDS011;3007;50.770;0.250;2023-12-29T07:09:25;34.90;;;5.83;;
5961;SDS011;3007;50.770;0.250;2023-12-29T07:11:51;32.90;;;5.53;;
5961;SDS011;3007;50.770;0.250;2023-12-29T07:14:18;36.33;;;5.90;;
5961;SDS011;3007;50.770;0.250;2023-12-29T07:16:46;37.67;;;6.13;;
5961;SDS011;3007;50.770;0.250;2023-12-29T07:19:13;41.27;;;6.67;;
5961;SDS011;3007;50.770;0.250;2023-12-29T07:21:40;46.97;;;8.13;;
5961;SDS011;3007;50.770;0.250;2023-12-29T07:24:07;37.93;;;5.73;;
5961;SDS011;3007;50.770;0.250;2023-12-29T07:26:34;40.77;;;6.30;;
5961;SDS011;3007;50.770;0.250;2023-12-29T07:29:01;36.40;;;7.30;;
5961;SDS011;3007;50.770;0.250;2023-12-29T07:31:28;34.80;;;6.80;;
5961;SDS011;3007;50.770;0.250;2023-12-29T07:33:58;36.57;;;6.53;;
5961;SDS011;3007;50.770;0.250;2023-12-29T07:36:25;33.70;;;6.13;;
5961;SDS011;3007;50.770;0.250;2023-12-29T07:38:52;41.70;;;6.43;;
5961;SDS011;3007;50.770;0.250;2023-12-29T07:41:19;46.30;;;7.23;;
5961;SDS011;3007;50.770;0.250;2023-12-29T07:43:46;34.70;;;6.90;;
5961;SDS011;3007;50.770;0.250;2023-12-29T07:46:13;41.60;;;6.07;;
5961;SDS011;3007;50.770;0.250;2023-12-29T07:48:49;42.37;;;7.00;;
5961;SDS011;3007;50.770;0.250;2023-12-29T07:51:17;35.03;;;6.57;;
5961;SDS011;3007;50.770;0.250;2023-12-29T07:53:44;37.83;;;7.35;;
5961;SDS011;3007;50.770;0.250;2023-12-29T07:56:11;39.50;;;7.50;;
5961;SDS011;3007;50.770;0.250;2023-12-29T07:58:38;33.73;;;7.33;;
5961;SDS011;3007;50.770;0.250;2023-12-29T08:01:04;31.07;;;6.90;;
5961;SDS011;3007;50.770;0.250;2023-12-29T08:03:31;34.47;;;5.97;;
5961;SDS011;3007;50.770;0.250;2023-12-29T08:05:58;43.70;;;7.33;;
5961;SDS011;3007;50.770;0.250;2023-12-29T08:08:26;36.10;;;6.30;;
5961;SDS011;3007;50.770;0.250;2023-12-29T08:10:53;41.63;;;7.10;;
5961;SDS011;3007;50.770;0.250;2023-12-29T08:13:20;27.87;;;6.17;;
5961;SDS011;3007;50.770;0.250;2023-12-29T08:15:47;31.80;;;6.63;;
5961;SDS011;3007;50.770;0.250;2023-12-29T08:18:13;31.13;;;6.43;;
5961;SDS011;3007;50.770;0.250;2023-12-29T08:20:40;36.70;;;6.67;;
5961;SDS011;3007;50.770;0.250;2023-12-29T08:23:07;37.10;;;6.57;;
5961;SDS011;3007;50.770;0.250;2023-12-29T08:25:36;34.97;;;6.20;;
5961;SDS011;3007;50.770;0.250;2023-12-29T08:28:03;38.00;;;5.70;;
5961;SDS011;3007;50.770;0.250;2023-12-29T08:30:34;31.27;;;5.83;;
5961;SDS011;3007;50.770;0.250;2023-12-29T08:33:02;32.63;;;5.43;;
5961;SDS011;3007;50.770;0.250;2023-12-29T08:35:29;29.60;;;4.50;;
5961;SDS011;3007;50.770;0.250;2023-12-29T08:37:56;37.10;;;5.50;;
5961;SDS011;3007;50.770;0.250;2023-12-29T08:40:22;27.40;;;5.47;;
5961;SDS011;3007;50.770;0.250;2023-12-29T08:42:50;31.93;;;6.70;;
5961;SDS011;3007;50.770;0.250;2023-12-29T08:45:18;29.50;;;5.77;;
5961;SDS011;3007;50.770;0.250;2023-12-29T08:47:44;28.97;;;5.37;;
5961;SDS011;3007;50.770;0.250;2023-12-29T08:50:11;29.97;;;5.57;;
5961;SDS011;3007;50.770;0.250;2023-12-29T08:52:39;30.47;;;5.57;;
5961;SDS011;3007;50.770;0.250;2023-12-29T08:55:06;49.43;;;7.40;;
5961;SDS011;3007;50.770;0.250;2023-12-29T08:57:35;26.50;;;6.43;;
5961;SDS011;3007;50.770;0.250;2023-12-29T09:00:03;39.37;;;6.13;;
5961;SDS011;3007;50.770;0.250;2023-12-29T09:02:31;29.17;;;5.17;;
5961;SDS011;3007;50.770;0.250;2023-12-29T09:04:58;37.50;;;6.80;;
5961;SDS011;3007;50.770;0.250;2023-12-29T09:07:25;30.87;;;5.27;;
5961;SDS011;3007;50.770;0.250;2023-12-29T09:09:53;31.67;;;5.63;;
5961;SDS011;3007;50.770;0.250;2023-12-29T09:12:20;35.03;;;5.50;;
5961;SDS011;3007;50.770;0.250;2023-12-29T09:14:46;31.70;;;5.17;;
5961;SDS011;3007;50.770;0.250;2023-12-29T09:17:15;24.33;;;3.93;;
5961;SDS011;3007;50.770;0.250;2023-12-29T09:19:41;20.70;;;3.67;;
5961;SDS011;3007;50.770;0.250;2023-12-29T09:22:08;18.07;;;4.20;;
5961;SDS011;3007;50.770;0.250;2023-12-29T09:24:35;25.60;;;5.30;;
5961;SDS011;3007;50.770;0.250;2023-12-29T09:27:02;22.30;;;4.33;;
5961;SDS011;3007;50.770;0.250;2023-12-29T09:29:29;22.77;;;4.13;;
5961;SDS011;3007;50.770;0.250;2023-12-29T09:31:56;23.53;;;3.93;;
5961;SDS011;3007;50.770;0.250;2023-12-29T09:34:24;32.17;;;4.93;;
5961;SDS011;3007;50.770;0.250;2023-12-29T09:36:51;25.40;;;4.63;;
5961;SDS011;3007;50.770;0.250;2023-12-29T09:39:18;28.57;;;4.90;;
5961;SDS011;3007;50.770;0.250;2023-12-29T09:41:46;27.47;;;4.93;;
5961;SDS011;3007;50.770;0.250;2023-12-29T09:44:17;22.63;;;4.27;;
5961;SDS011;3007;50.770;0.250;2023-12-29T09:46:47;23.50;;;3.80;;
5961;SDS011;3007;50.770;0.250;2023-12-29T09:49:17;21.07;;;3.70;;
5961;SDS011;3007;50.770;0.250;2023-12-29T09:51:47;29.27;;;3.80;;
5961;SDS011;3007;50.770;0.250;2023-12-29T09:54:15;16.43;;;3.87;;
5961;SDS011;3007;50.770;0.250;2023-12-29T09:56:42;18.67;;;3.23;;
5961;SDS011;3007;50.770;0.250;2023-12-29T09:59:09;26.53;;;4.13;;
5961;SDS011;3007;50.770;0.250;2023-12-29T10:01:42;23.63;;;5.10;;
5961;SDS011;3007;50.770;0.250;2023-12-29T10:04:11;26.40;;;4.33;;
5961;SDS011;3007;50.770;0.250;2023-12-29T10:06:40;25.63;;;4.50;;
5961;SDS011;3007;50.770;0.250;2023-12-29T10:09:12;26.53;;;4.63;;
5961;SDS011;3007;50.770;0.250;2023-12-29T10:11:41;28.73;;;4.87;;
5961;SDS011;3007;50.770;0.250;2023-12-29T10:14:14;27.67;;;5.23;;
5961;SDS011;3007;50.770;0.250;2023-12-29T10:16:50;21.30;;;4.40;;
5961;SDS011;3007;50.770;0.250;2023-12-29T10:19:23;27.63;;;4.17;;
5961;SDS011;3007;50.770;0.250;2023-12-29T10:22:03;25.50;;;3.60;;
5961;SDS011;3007;50.770;0.250;2023-12-29T10:24:38;23.83;;;4.37;;
5961;SDS011;3007;50.770;0.250;2023-12-29T10:27:07;26.17;;;4.87;;
5961;SDS011;3007;50.770;0.250;2023-12-29T10:29:34;23.83;;;4.57;;
5961;SDS011;3007;50.770;0.250;2023-12-29T10:32:03;22.43;;;3.47;;
5961;SDS011;3007;50.770;0.250;2023-12-29T10:34:30;22.57;;;4.10;;
5961;SDS011;3007;50.770;0.250;2023-12-29T10:36:57;17.67;;;3.60;;
5961;SDS011;3007;50.770;0.250;2023-12-29T10:39:25;31.43;;;5.13;;
5961;SDS011;3007;50.770;0.250;2023-12-29T10:42:02;27.00;;;4.87;;
5961;SDS011;3007;50.770;0.250;2023-12-29T10:44:31;32.47;;;5.77;;
5961;SDS011;3007;50.770;0.250;2023-12-29T10:46:58;25.37;;;4.70;;
5961;SDS011;3007;50.770;0.250;2023-12-29T10:49:24;30.37;;;4.83;;
5961;SDS011;3007;50.770;0.250;2023-12-29T10:51:51;24.77;;;4.87;;
5961;SDS011;3007;50.770;0.250;2023-12-29T10:54:20;33.37;;;6.07;;
5961;SDS011;3007;50.770;0.250;2023-12-29T10:56:59;27.37;;;5.37;;
5961;SDS011;3007;50.770;0.250;2023-12-29T10:59:27;30.00;;;5.03;;
5961;SDS011;3007;50.770;0.250;2023-12-29T11:01:55;26.43;;;4.67;;
5961;SDS011;3007;50.770;0.250;2023-12-29T11:04:22;21.47;;;4.20;;
5961;SDS011;3007;50.770;0.250;2023-12-29T11:06:49;21.30;;;4.40;;
5961;SDS011;3007;50.770;0.250;2023-12-29T11:09:23;20.67;;;4.27;;
5961;SDS011;3007;50.770;0.250;2023-12-29T11:11:54;20.67;;;4.30;;
5961;SDS011;3007;50.770;0.250;2023-12-29T11:14:24;17.33;;;3.80;;
5961;SDS011;3007;50.770;0.250;2023-12-29T11:16:54;19.33;;;4.27;;
5961;SDS011;3007;50.770;0.250;2023-12-29T11:19:22;26.77;;;4.13;;
5961;SDS011;3007;50.770;0.250;2023-12-29T11:21:49;23.60;;;4.13;;
5961;SDS011;3007;50.770;0.250;2023-12-29T11:24:19;20.80;;;4.03;;
5961;SDS011;3007;50.770;0.250;2023-12-29T11:26:46;20.60;;;4.27;;
5961;SDS011;3007;50.770;0.250;2023-12-29T11:29:14;27.70;;;4.17;;
5961;SDS011;3007;50.770;0.250;2023-12-29T11:31:44;28.97;;;5.20;;
5961;SDS011;3007;50.770;0.250;2023-12-29T11:34:16;26.40;;;5.20;;
5961;SDS011;3007;50.770;0.250;2023-12-29T11:36:47;21.33;;;3.83;;
5961;SDS011;3007;50.770;0.250;2023-12-29T11:39:17;26.17;;;4.07;;
5961;SDS011;3007;50.770;0.250;2023-12-29T11:41:51;24.93;;;4.17;;
5961;SDS011;3007;50.770;0.250;2023-12-29T11:44:26;23.27;;;4.10;;
5961;SDS011;3007;50.770;0.250;2023-12-29T11:46:56;22.20;;;4.17;;
5961;SDS011;3007;50.770;0.250;2023-12-29T11:49:23;30.67;;;6.00;;
5961;SDS011;3007;50.770;0.250;2023-12-29T11:51:50;26.73;;;5.13;;
5961;SDS011;3007;50.770;0.250;2023-12-29T11:54:24;24.07;;;4.97;;
5961;SDS011;3007;50.770;0.250;2023-12-29T11:56:52;23.03;;;4.40;;
5961;SDS011;3007;50.770;0.250;2023-12-29T11:59:20;26.93;;;5.03;;
5961;SDS011;3007;50.770;0.250;2023-12-29T12:01:48;30.17;;;5.07;;
5961;SDS011;3007;50.770;0.250;2023-12-29T12:04:35;26.07;;;4.77;;
5961;SDS011;3007;50.770;0.250;2023-12-29T12:07:05;28.47;;;5.30;;
5961;SDS011;3007;50.770;0.250;2023-12-29T12:09:32;30.37;;;5.07;;
5961;SDS011;3007;50.770;0.250;2023-12-29T12:12:00;34.67;;;5.90;;
5961;SDS011;3007;50.770;0.250;2023-12-29T12:17:28;30.03;;;5.53;;
5961;SDS011;3007;50.770;0.250;2023-12-29T12:19:58;25.10;;;5.23;;
5961;SDS011;3007;50.770;0.250;2023-12-29T12:22:26;30.83;;;5.17;;
5961;SDS011;3007;50.770;0.250;2023-12-29T12:24:58;27.17;;;5.60;;
5961;SDS011;3007;50.770;0.250;2023-12-29T12:27:25;32.47;;;5.57;;
5961;SDS011;3007;50.770;0.250;2023-12-29T12:29:53;34.27;;;6.57;;
5961;SDS011;3007;50.770;0.250;2023-12-29T12:32:25;29.63;;;5.93;;
5961;SDS011;3007;50.770;0.250;2023-12-29T12:34:52;31.23;;;6.47;;
5961;SDS011;3007;50.770;0.250;2023-12-29T12:37:21;31.80;;;6.63;;
5961;SDS011;3007;50.770;0.250;2023-12-29T12:39:48;26.07;;;5.70;;
5961;SDS011;3007;50.770;0.250;2023-12-29T12:42:16;24.23;;;5.90;;
5961;SDS011;3007;50.770;0.250;2023-12-29T12:44:48;27.90;;;5.70;;
5961;SDS011;3007;50.770;0.250;2023-12-29T12:47:23;28.17;;;6.40;;
5961;SDS011;3007;50.770;0.250;2023-12-29T12:49:53;24.00;;;4.93;;
5961;SDS011;3007;50.770;0.250;2023-12-29T12:52:21;26.67;;;5.63;;
5961;SDS011;3007;50.770;0.250;2023-12-29T12:54:48;31.80;;;5.57;;
5961;SDS011;3007;50.770;0.250;2023-12-29T12:57:19;35.10;;;6.40;;
5961;SDS011;3007;50.770;0.250;2023-12-29T12:59:46;27.30;;;4.97;;
5961;SDS011;3007;50.770;0.250;2023-12-29T13:02:14;41.10;;;6.67;;
5961;SDS011;3007;50.770;0.250;2023-12-29T13:04:41;32.40;;;6.63;;
5961;SDS011;3007;50.770;0.250;2023-12-29T13:07:09;29.90;;;6.73;;
5961;SDS011;3007;50.770;0.250;2023-12-29T13:09:37;34.63;;;6.60;;
5961;SDS011;3007;50.770;0.250;2023-12-29T13:12:08;25.77;;;5.23;;
5961;SDS011;3007;50.770;0.250;2023-12-29T13:14:35;26.27;;;5.53;;
5961;SDS011;3007;50.770;0.250;2023-12-29T13:17:06;29.07;;;6.03;;
5961;SDS011;3007;50.770;0.250;2023-12-29T13:19:33;28.87;;;5.87;;
5961;SDS011;3007;50.770;0.250;2023-12-29T13:22:00;24.87;;;5.43;;
5961;SDS011;3007;50.770;0.250;2023-12-29T13:24:28;25.23;;;5.00;;
5961;SDS011;3007;50.770;0.250;2023-12-29T13:26:57;31.10;;;5.77;;
5961;SDS011;3007;50.770;0.250;2023-12-29T13:29:27;31.83;;;5.90;;
5961;SDS011;3007;50.770;0.250;2023-12-29T13:31:56;28.03;;;5.50;;
5961;SDS011;3007;50.770;0.250;2023-12-29T13:34:27;28.53;;;5.13;;
5961;SDS011;3007;50.770;0.250;2023-12-29T13:37:01;37.50;;;6.03;;
5961;SDS011;3007;50.770;0.250;2023-12-29T13:39:31;23.20;;;4.43;;
5961;SDS011;3007;50.770;0.250;2023-12-29T13:42:05;30.87;;;5.50;;
5961;SDS011;3007;50.770;0.250;2023-12-29T13:44:35;26.70;;;5.20;;
5961;SDS011;3007;50.770;0.250;2023-12-29T13:47:05;26.43;;;4.93;;
5961;SDS011;3007;50.770;0.250;2023-12-29T13:49:32;31.77;;;5.87;;
5961;SDS011;3007;50.770;0.250;2023-12-29T13:52:01;32.90;;;5.87;;
5961;SDS011;3007;50.770;0.250;2023-12-29T13:54:29;29.47;;;5.80;;
5961;SDS011;3007;50.770;0.250;2023-12-29T13:56:56;29.40;;;5.23;;
5961;SDS011;3007;50.770;0.250;2023-12-29T13:59:30;25.53;;;4.67;;
5961;SDS011;3007;50.770;0.250;2023-12-29T14:01:58;18.40;;;3.40;;
5961;SDS011;3007;50.770;0.250;2023-12-29T14:04:25;23.83;;;4.73;;
5961;SDS011;3007;50.770;0.250;2023-12-29T14:06:54;19.63;;;4.93;;
5961;SDS011;3007;50.770;0.250;2023-12-29T14:09:25;23.87;;;4.70;;
5961;SDS011;3007;50.770;0.250;2023-12-29T14:11:51;26.83;;;5.60;;
5961;SDS011;3007;50.770;0.250;2023-12-29T14:14:21;28.97;;;4.77;;
5961;SDS011;3007;50.770;0.250;2023-12-29T14:16:51;25.07;;;5.33;;
5961;SDS011;3007;50.770;0.250;2023-12-29T14:19:18;28.00;;;5.53;;
5961;SDS011;3007;50.770;0.250;2023-12-29T14:21:45;25.57;;;5.37;;
5961;SDS011;3007;50.770;0.250;2023-12-29T14:24:16;33.30;;;5.10;;
5961;SDS011;3007;50.770;0.250;2023-12-29T14:26:53;29.70;;;5.07;;
5961;SDS011;3007;50.770;0.250;2023-12-29T14:29:21;30.90;;;5.17;;
5961;SDS011;3007;50.770;0.250;2023-12-29T14:31:48;21.90;;;5.80;;
5961;SDS011;3007;50.770;0.250;2023-12-29T14:34:17;21.77;;;4.43;;
5961;SDS011;3007;50.770;0.250;2023-12-29T14:36:45;25.60;;;5.83;;
5961;SDS011;3007;50.770;0.250;2023-12-29T14:39:12;30.57;;;5.20;;
5961;SDS011;3007;50.770;0.250;2023-12-29T14:41:40;18.23;;;4.93;;
5961;SDS011;3007;50.770;0.250;2023-12-29T14:44:07;19.27;;;4.10;;
5961;SDS011;3007;50.770;0.250;2023-12-29T14:46:34;29.37;;;5.00;;
5961;SDS011;3007;50.770;0.250;2023-12-29T14:49:03;24.30;;;4.67;;
5961;SDS011;3007;50.770;0.250;2023-12-29T14:51:30;24.50;;;4.20;;
5961;SDS011;3007;50.770;0.250;2023-12-29T14:53:57;23.40;;;4.67;;
5961;SDS011;3007;50.770;0.250;2023-12-29T14:56:24;19.60;;;4.30;;
5961;SDS011;3007;50.770;0.250;2023-12-29T14:58:51;22.47;;;3.97;;
5961;SDS011;3007;50.770;0.250;2023-12-29T15:01:18;21.30;;;4.27;;
5961;SDS011;3007;50.770;0.250;2023-12-29T15:03:45;16.80;;;4.00;;
5961;SDS011;3007;50.770;0.250;2023-12-29T15:06:13;20.77;;;4.07;;
5961;SDS011;3007;50.770;0.250;2023-12-29T15:08:39;15.90;;;3.90;;